sensor_id;sensor_type;location;lat;lon;timestamp;pressure;altitude;pressure_sealevel;temperature;humidity
39341;BME280;25059;52.132;21.062;2023-03-14T06:35:42;98404.72;;;8.83;100.00
39341;BME280;25059;52.132;21.062;2023-03-14T06:38:29;98396.28;;;8.92;100.00
39341;BME280;25059;52.132;21.062;2023-03-14T06:41:14;98411.97;;;9.06;100.00
39341;BME280;25059;52.132;21.062;2023-03-14T06:43:58;98411.63;;;9.25;100.00
39341;BME280;25059;52.132;21.062;2023-03-14T06:46:43;98412.44;;;9.40;100.00
39341;BME280;25059;52.132;21.062;2023-03-14T06:49:28;98410.69;;;9.53;100.00
39341;BME280;25059;52.132;21.062;2023-03-14T06:52:12;98404.09;;;9.60;100.00
39341;BME280;25059;52.132;21.062;2023-03-14T06:54:58;98401.91;;;9.80;100.00
39341;BME280;25059;52.132;21.062;2023-03-14T06:57:42;98397.50;;;9.80;100.00
39341;BME280;25059;52.132;21.062;2023-03-14T07:00:28;98401.81;;;9.94;100.00
39341;BME280;25059;52.132;21.062;2023-03-14T07:03:14;98401.53;;;10.11;100.00
39341;BME280;25059;52.132;21.062;2023-03-14T07:06:00;98386.31;;;10.29;100.00
39341;BME280;25059;52.132;21.062;2023-03-14T07:08:45;98387.13;;;10.55;100.00
39341;BME280;25059;52.132;21.062;2023-03-14T07:11:33;98397.00;;;11.00;100.00
39341;BME280;25059;52.132;21.062;2023-03-14T07:14:34;98385.84;;;11.45;100.00
39341;BME280;25059;52.132;21.062;2023-03-14T07:18:18;98389.78;;;11.74;100.00
39341;BME280;25059;52.132;21.062;2023-03-14T07:21:43;98378.94;;;11.79;100.00
39341;BME280;25059;52.132;21.062;2023-03-14T07:25:18;98394.91;;;11.64;100.00
39341;BME280;25059;52.132;21.062;2023-03-14T07:28:05;98400.81;;;11.44;100.00
39341;BME280;25059;52.132;21.062;2023-03-14T07:30:54;98396.88;;;11.50;100.00
39341;BME280;25059;52.132;21.062;2023-03-14T07:33:54;98412.91;;;11.47;100.00
39341;BME280;25059;52.132;21.062;2023-03-14T07:36:51;98415.69;;;11.56;100.00
39341;BME280;25059;52.132;21.062;2023-03-14T07:39:37;98410.47;;;11.68;99.45
39341;BME280;25059;52.132;21.062;2023-03-14T07:42:22;98416.19;;;11.85;98.51
39341;BME280;25059;52.132;21.062;2023-03-14T07:48:49;98414.47;;;12.31;94.12
39341;BME280;25059;52.132;21.062;2023-03-14T07:51:59;98412.69;;;12.53;92.10
39341;BME280;25059;52.132;21.062;2023-03-14T07:58:35;98415.31;;;12.87;90.05
39341;BME280;25059;52.132;21.062;2023-03-14T08:01:23;98405.34;;;13.02;88.51
39341;BME280;25059;52.132;21.062;2023-03-14T08:04:14;98407.38;;;12.98;86.76
39341;BME280;25059;52.132;21.062;2023-03-14T08:06:59;98392.84;;;13.15;84.46
39341;BME280;25059;52.132;21.062;2023-03-14T08:13:31;98410.94;;;13.63;83.72
39341;BME280;25059;52.132;21.062;2023-03-14T08:16:20;98409.41;;;13.81;81.11
39341;BME280;25059;52.132;21.062;2023-03-14T08:19:12;98405.56;;;14.06;79.51
39341;BME280;25059;52.132;21.062;2023-03-14T08:22:03;98402.78;;;14.07;78.07
39341;BME280;25059;52.132;21.062;2023-03-14T08:25:12;98379.19;;;13.95;78.50
39341;BME280;25059;52.132;21.062;2023-03-14T08:27:57;98389.06;;;13.93;77.93
39341;BME280;25059;52.132;21.062;2023-03-14T08:30:42;98403.53;;;14.19;79.36
39341;BME280;25059;52.132;21.062;2023-03-14T08:33:29;98410.84;;;14.06;78.63
39341;BME280;25059;52.132;21.062;2023-03-14T08:36:24;98418.44;;;13.78;79.29
39341;BME280;25059;52.132;21.062;2023-03-14T08:39:09;98412.56;;;13.75;82.37
39341;BME280;25059;52.132;21.062;2023-03-14T08:42:00;98417.72;;;13.76;79.75
39341;BME280;25059;52.132;21.062;2023-03-14T08:44:53;98408.44;;;14.03;79.24
39341;BME280;25059;52.132;21.062;2023-03-14T08:47:38;98416.25;;;14.25;77.83
39341;BME280;25059;52.132;21.062;2023-03-14T08:50:22;98406.91;;;14.42;77.86
39341;BME280;25059;52.132;21.062;2023-03-14T08:53:08;98407.59;;;14.23;77.29
39341;BME280;25059;52.132;21.062;2023-03-14T08:56:17;98405.66;;;14.25;75.88
39341;BME280;25059;52.132;21.062;2023-03-14T08:59:02;98404.75;;;14.57;75.19
39341;BME280;25059;52.132;21.062;2023-03-14T09:02:03;98406.75;;;14.74;74.51
39341;BME280;25059;52.132;21.062;2023-03-14T09:04:50;98402.41;;;15.03;74.24
39341;BME280;25059;52.132;21.062;2023-03-14T09:07:41;98425.66;;;15.00;72.47
39341;BME280;25059;52.132;21.062;2023-03-14T09:10:29;98409.78;;;14.60;72.81
39341;BME280;25059;52.132;21.062;2023-03-14T09:13:14;98403.91;;;14.96;72.72
39341;BME280;25059;52.132;21.062;2023-03-14T09:15:58;98383.44;;;14.98;72.02
39341;BME280;25059;52.132;21.062;2023-03-14T09:18:43;98379.84;;;15.18;71.10
39341;BME280;25059;52.132;21.062;2023-03-14T09:21:29;98379.47;;;15.42;70.13
39341;BME280;25059;52.132;21.062;2023-03-14T09:24:14;98373.88;;;15.55;70.18
39341;BME280;25059;52.132;21.062;2023-03-14T09:27:00;98365.81;;;15.86;68.88
39341;BME280;25059;52.132;21.062;2023-03-14T09:29:45;98345.63;;;16.22;67.77
39341;BME280;25059;52.132;21.062;2023-03-14T09:32:30;98354.16;;;16.53;64.70
39341;BME280;25059;52.132;21.062;2023-03-14T09:35:18;98343.44;;;16.82;64.17
39341;BME280;25059;52.132;21.062;2023-03-14T09:38:02;98355.09;;;17.16;63.23
39341;BME280;25059;52.132;21.062;2023-03-14T09:40:48;98340.59;;;17.10;61.81
39341;BME280;25059;52.132;21.062;2023-03-14T09:43:35;98343.00;;;16.86;61.96
39341;BME280;25059;52.132;21.062;2023-03-14T09:46:20;98329.34;;;16.81;62.34
39341;BME280;25059;52.132;21.062;2023-03-14T09:49:14;98327.41;;;17.19;63.08
39341;BME280;25059;52.132;21.062;2023-03-14T09:52:13;98313.59;;;17.51;61.14
39341;BME280;25059;52.132;21.062;2023-03-14T09:55:05;98311.06;;;17.85;60.15
39341;BME280;25059;52.132;21.062;2023-03-14T09:58:03;98305.69;;;18.02;59.28
39341;BME280;25059;52.132;21.062;2023-03-14T10:01:46;98306.53;;;17.59;58.67
39341;BME280;25059;52.132;21.062;2023-03-14T10:05:01;98302.28;;;17.49;60.69
39341;BME280;25059;52.132;21.062;2023-03-14T10:07:50;98314.50;;;17.24;59.42
39341;BME280;25059;52.132;21.062;2023-03-14T10:10:35;98327.41;;;17.19;58.77
39341;BME280;25059;52.132;21.062;2023-03-14T10:13:23;98308.13;;;17.52;59.06
39341;BME280;25059;52.132;21.062;2023-03-14T10:16:11;98318.38;;;17.29;58.03
39341;BME280;25059;52.132;21.062;2023-03-14T10:19:04;98323.38;;;17.15;59.36
39341;BME280;25059;52.132;21.062;2023-03-14T10:22:01;98313.97;;;17.20;59.79
39341;BME280;25059;52.132;21.062;2023-03-14T10:24:52;98307.97;;;17.36;58.94
39341;BME280;25059;52.132;21.062;2023-03-14T10:27:37;98325.44;;;17.74;56.72
39341;BME280;25059;52.132;21.062;2023-03-14T10:30:38;98301.81;;;17.53;57.51
39341;BME280;25059;52.132;21.062;2023-03-14T10:33:31;98301.34;;;17.58;57.23
39341;BME280;25059;52.132;21.062;2023-03-14T10:36:21;98298.75;;;18.10;56.18
39341;BME280;25059;52.132;21.062;2023-03-14T10:39:35;98314.41;;;18.47;55.52
39341;BME280;25059;52.132;21.062;2023-03-14T10:42:27;98314.97;;;18.24;54.85
39341;BME280;25059;52.132;21.062;2023-03-14T10:45:40;98297.81;;;17.49;57.24
39341;BME280;25059;52.132;21.062;2023-03-14T10:48:48;98298.78;;;17.48;57.46
39341;BME280;25059;52.132;21.062;2023-03-14T10:55:16;98301.75;;;16.64;59.47
39341;BME280;25059;52.132;21.062;2023-03-14T10:58:01;98309.56;;;16.38;59.99
39341;BME280;25059;52.132;21.062;2023-03-14T11:04:36;98298.75;;;16.50;61.35
39341;BME280;25059;52.132;21.062;2023-03-14T11:22:46;98314.66;;;18.01;56.50
39341;BME280;25059;52.132;21.062;2023-03-14T11:28:49;98298.72;;;16.87;60.51
39341;BME280;25059;52.132;21.062;2023-03-14T11:31:39;98345.31;;;16.34;61.54
39341;BME280;25059;52.132;21.062;2023-03-14T11:34:35;98321.31;;;15.89;63.71
39341;BME280;25059;52.132;21.062;2023-03-14T11:37:34;98309.06;;;15.78;64.42
39341;BME280;25059;52.132;21.062;2023-03-14T11:40:42;98304.75;;;15.68;64.00
39341;BME280;25059;52.132;21.062;2023-03-14T11:43:47;98306.84;;;15.45;65.31
39341;BME280;25059;52.132;21.062;2023-03-14T11:46:38;98292.63;;;15.17;65.78
39341;BME280;25059;52.132;21.062;2023-03-14T11:49:36;98303.88;;;14.80;67.54
39341;BME280;25059;52.132;21.062;2023-03-14T12:04:07;98323.56;;;15.55;67.64
39341;BME280;25059;52.132;21.062;2023-03-14T12:07:09;98324.88;;;16.07;66.15
39341;BME280;25059;52.132;21.062;2023-03-14T12:10:13;98298.97;;;17.29;62.65
39341;BME280;25059;52.132;21.062;2023-03-14T12:13:47;98283.84;;;19.09;57.16
39341;BME280;25059;52.132;21.062;2023-03-14T12:16:37;98312.00;;;18.61;56.92
39341;BME280;25059;52.132;21.062;2023-03-14T12:22:34;98315.00;;;16.64;62.46
39341;BME280;25059;52.132;21.062;2023-03-14T12:25:43;98322.28;;;15.88;65.23
39341;BME280;25059;52.132;21.062;2023-03-14T12:32:40;98311.44;;;15.52;68.66
39341;BME280;25059;52.132;21.062;2023-03-14T12:35:45;98328.03;;;15.26;70.46
39341;BME280;25059;52.132;21.062;2023-03-14T12:59:35;98331.03;;;14.12;82.22
39341;BME280;25059;52.132;21.062;2023-03-14T13:08:02;98345.75;;;13.63;94.05
39341;BME280;25059;52.132;21.062;2023-03-14T13:10:52;98354.09;;;12.50;100.00
39341;BME280;25059;52.132;21.062;2023-03-14T13:13:52;98366.63;;;11.79;100.00
39341;BME280;25059;52.132;21.062;2023-03-14T13:17:09;98370.38;;;11.29;100.00
39341;BME280;25059;52.132;21.062;2023-03-14T13:20:15;98364.41;;;11.38;100.00
39341;BME280;25059;52.132;21.062;2023-03-14T13:27:22;98385.19;;;10.70;100.00
39341;BME280;25059;52.132;21.062;2023-03-14T13:30:22;98376.13;;;10.37;100.00
39341;BME280;25059;52.132;21.062;2023-03-14T13:33:36;98382.63;;;10.31;100.00
39341;BME280;25059;52.132;21.062;2023-03-14T13:36:35;98381.38;;;10.24;100.00
39341;BME280;25059;52.132;21.062;2023-03-14T13:39:54;98369.38;;;10.08;100.00
39341;BME280;25059;52.132;21.062;2023-03-14T13:43:03;98378.84;;;10.35;100.00
39341;BME280;25059;52.132;21.062;2023-03-14T13:46:07;98370.66;;;10.27;100.00
39341;BME280;25059;52.132;21.062;2023-03-14T13:48:58;98385.16;;;10.33;100.00
39341;BME280;25059;52.132;21.062;2023-03-14T13:51:44;98375.56;;;10.19;100.00
39341;BME280;25059;52.132;21.062;2023-03-14T13:54:32;98389.47;;;10.21;100.00
39341;BME280;25059;52.132;21.062;2023-03-14T13:57:23;98393.53;;;10.13;100.00
39341;BME280;25059;52.132;21.062;2023-03-14T14:00:18;98384.59;;;10.02;100.00
39341;BME280;25059;52.132;21.062;2023-03-14T14:03:15;98396.59;;;10.07;100.00
39341;BME280;25059;52.132;21.062;2023-03-14T14:06:00;98389.56;;;10.07;100.00
39341;BME280;25059;52.132;21.062;2023-03-14T14:08:46;98374.13;;;10.02;100.00
39341;BME280;25059;52.132;21.062;2023-03-14T14:14:43;98391.72;;;9.75;100.00
39341;BME280;25059;52.132;21.062;2023-03-14T14:17:47;98382.78;;;9.65;100.00
39341;BME280;25059;52.132;21.062;2023-03-14T14:20:44;98373.13;;;9.53;100.00
39341;BME280;25059;52.132;21.062;2023-03-14T14:23:35;98368.47;;;9.44;100.00
39341;BME280;25059;52.132;21.062;2023-03-14T14:26:26;98372.47;;;9.49;100.00
39341;BME280;25059;52.132;21.062;2023-03-14T14:29:31;98369.66;;;9.52;100.00
39341;BME280;25059;52.132;21.062;2023-03-14T14:32:17;98368.50;;;9.56;100.00
39341;BME280;25059;52.132;21.062;2023-03-14T14:35:06;98366.19;;;9.52;100.00
39341;BME280;25059;52.132;21.062;2023-03-14T14:37:52;98367.88;;;9.65;100.00
39341;BME280;25059;52.132;21.062;2023-03-14T14:40:44;98355.00;;;9.75;100.00
39341;BME280;25059;52.132;21.062;2023-03-14T14:43:39;98354.47;;;9.83;100.00
39341;BME280;25059;52.132;21.062;2023-03-14T14:46:30;98345.03;;;9.80;100.00
39341;BME280;25059;52.132;21.062;2023-03-14T14:49:30;98350.91;;;9.84;100.00
39341;BME280;25059;52.132;21.062;2023-03-14T14:52:19;98340.94;;;9.76;100.00
39341;BME280;25059;52.132;21.062;2023-03-14T14:55:17;98339.66;;;9.82;100.00
39341;BME280;25059;52.132;21.062;2023-03-14T15:01:15;98344.41;;;9.89;100.00
39341;BME280;25059;52.132;21.062;2023-03-14T15:04:00;98351.63;;;9.86;100.00
39341;BME280;25059;52.132;21.062;2023-03-14T15:06:47;98345.44;;;9.87;100.00
39341;BME280;25059;52.132;21.062;2023-03-14T15:09:33;98351.75;;;9.84;100.00
39341;BME280;25059;52.132;21.062;2023-03-14T15:12:18;98373.25;;;9.89;100.00
39341;BME280;25059;52.132;21.062;2023-03-14T15:15:04;98391.75;;;9.88;100.00
39341;BME280;25059;52.132;21.062;2023-03-14T15:17:49;98401.59;;;9.84;100.00
39341;BME280;25059;52.132;21.062;2023-03-14T15:20:34;98410.84;;;9.77;100.00
39341;BME280;25059;52.132;21.062;2023-03-14T15:23:20;98403.06;;;9.76;100.00
39341;BME280;25059;52.132;21.062;2023-03-14T15:26:15;98394.25;;;9.77;100.00
39341;BME280;25059;52.132;21.062;2023-03-14T15:29:00;98395.59;;;9.69;100.00
39341;BME280;25059;52.132;21.062;2023-03-14T15:31:44;98394.97;;;9.66;100.00
39341;BME280;25059;52.132;21.062;2023-03-14T15:34:29;98385.75;;;9.73;100.00
39341;BME280;25059;52.132;21.062;2023-03-14T15:37:16;98392.88;;;9.84;100.00
39341;BME280;25059;52.132;21.062;2023-03-14T15:40:02;98381.56;;;9.83;100.00
39341;BME280;25059;52.132;21.062;2023-03-14T15:42:49;98380.09;;;9.79;100.00
39341;BME280;25059;52.132;21.062;2023-03-14T15:45:34;98381.97;;;9.77;100.00
39341;BME280;25059;52.132;21.062;2023-03-14T15:48:20;98375.44;;;9.70;100.00
39341;BME280;25059;52.132;21.062;2023-03-14T15:51:05;98380.38;;;9.75;100.00
39341;BME280;25059;52.132;21.062;2023-03-14T15:53:50;98375.47;;;9.83;100.00
39341;BME280;25059;52.132;21.062;2023-03-14T15:56:36;98381.97;;;9.77;100.00
39341;BME280;25059;52.132;21.062;2023-03-14T15:59:21;98395.09;;;9.77;100.00
39341;BME280;25059;52.132;21.062;2023-03-14T16:02:05;98400.66;;;9.73;100.00
39341;BME280;25059;52.132;21.062;2023-03-14T16:04:50;98410.00;;;9.77;100.00
39341;BME280;25059;52.132;21.062;2023-03-14T16:07:35;98408.19;;;9.64;100.00
39341;BME280;25059;52.132;21.062;2023-03-14T16:10:20;98415.56;;;9.72;100.00
39341;BME280;25059;52.132;21.062;2023-03-14T16:13:05;98415.66;;;9.70;100.00
39341;BME280;25059;52.132;21.062;2023-03-14T16:15:59;98412.28;;;9.68;100.00
39341;BME280;25059;52.132;21.062;2023-03-14T16:18:44;98411.66;;;9.65;100.00
39341;BME280;25059;52.132;21.062;2023-03-14T16:21:29;98406.50;;;9.63;100.00
39341;BME280;25059;52.132;21.062;2023-03-14T16:24:16;98403.34;;;9.58;100.00
39341;BME280;25059;52.132;21.062;2023-03-14T16:27:00;98411.41;;;9.55;100.00
39341;BME280;25059;52.132;21.062;2023-03-14T16:29:45;98410.38;;;9.58;100.00
